• Join FlightAware (Why Join?)
  • Login
  • US Flag 
09:26PM EDT


 

Airport Tracker/Info


-or-


 

Live Flight TrackerFlight Track Log ✈ GJS3627 ✈ 13-Jul-2013 ✈ KORD - KMCI

Flight Track Log - Related Links

Times and Time Zones

All times are in EDT time to prevent confusion due to time zone crossing. See the GJS3627 flight status page for this flight to view local times or setup timezone preferences in your user account.

Time Position Orientation Groundspeed Altitude Reporting Facility
EDT Latitude Longitude Course Direction KTS MPH feet Rate Location/Type
12:18PM 41.9667 -87.8667 253° West 174 200 2,200  Level Chicago TRACON
12:19PM 41.9167 -87.9167 217° Southwest 231 266 4,100 2,100 Climbing Chicago TRACON
12:20PM 41.8833 -88.0000 242° Southwest 287 330 6,400 2,280 Climbing Chicago TRACON
12:21PM 41.8392 -88.4539 255° West  Level FlightAware Approximate
12:21PM 41.8706 -88.0906 259° West 297 342 8,700  Level Chicago Center
12:22PM 41.8087 -88.5950 254° West  Level FlightAware Approximate
12:22PM 41.8686 -88.2044 269° West 306 352 11,400  Level Chicago Center
12:23PM 41.7775 -88.7358 253° West  Level FlightAware Approximate
12:23PM 41.8453 -88.3467 258° West 336 387 13,900  Level Chicago Center
12:24PM 41.8178 -88.4753 254° West 356 410 15,700 1,680 Climbing Chicago Center
12:25PM 41.7867 -88.6122 253° West 384 442 17,400 1,500 Climbing Chicago Center
12:26PM 41.7553 -88.7558 254° West 402 463 18,900 1,440 Climbing Chicago Center
12:27PM 41.7228 -88.9006 253° West 409 471 20,500 1,320 Climbing Chicago Center
12:28PM 41.6822 -89.0853 254° West 433 498 21,700 1,020 Climbing Chicago Center
12:29PM 41.6461 -89.2483 254° West 455 524 22,700 1,020 Climbing Chicago Center
12:30PM 41.6075 -89.4144 253° West 469 540 23,900 1,200 Climbing Chicago Center
12:31PM 41.5672 -89.5931 253° West 469 540 25,300 1,140 Climbing Chicago Center
12:32PM 41.5289 -89.7592 253° West 470 541 26,300 960 Climbing Chicago Center
12:33PM 41.4906 -89.9267 253° West 473 544 27,300 900 Climbing Chicago Center
12:34PM 41.4497 -90.0975 252° West 483 556 28,200 900 Climbing Chicago Center
12:35PM 41.3606 -90.2817 237° Southwest 498 573 29,200 840 Climbing Chicago Center
12:36PM 41.2822 -90.4342 236° Southwest 503 579 30,000 780 Climbing Chicago Center
12:37PM 41.2017 -90.5914 236° Southwest 516 594 30,900 900 Climbing Chicago Center
12:38PM 41.1228 -90.7444 236° Southwest 507 583 31,900 960 Climbing Chicago Center
12:39PM 41.0439 -90.8953 235° Southwest 503 579 32,900 1,020 Climbing Chicago Center
12:40PM 40.9503 -91.0733 235° Southwest 495 570 34,100 1,020 Climbing Chicago Center
12:41PM 40.8728 -91.2214 235° Southwest 493 567 35,100 900 Climbing Chicago Center
12:42PM 40.7903 -91.3769 235° Southwest 489 563 36,000 420 Climbing Chicago Center
12:43PM 40.7147 -91.5308 237° Southwest 508 585 36,000  Level Chicago Center
12:44PM 40.6447 -91.6906 240° Southwest 508 585 36,000  Level Chicago Center
12:45PM 40.5881 -91.8156 239° Southwest 505 581 36,000  Level Kansas City Center
12:46PM 40.5183 -91.9706 239° Southwest 499 574 36,000  Level Kansas City Center
12:47PM 40.4481 -92.1250 239° Southwest 496 571 36,000  Level Kansas City Center
12:48PM 40.3789 -92.2775 239° Southwest 492 566 36,000 -180 Level Kansas City Center
12:49PM 40.3047 -92.4353 238° Southwest 483 556 35,700 -1,260 Descending Kansas City Center
12:50PM 40.2275 -92.6078 240° Southwest 487 560 33,400 -2,160 Descending Kansas City Center
12:51PM 40.1619 -92.7483 239° Southwest 480 552 31,300 -2,400 Descending Kansas City Center
12:52PM 40.0881 -92.9067 239° Southwest 461 531 28,500 -2,580 Descending Kansas City Center
12:53PM 40.0231 -93.0447 238° Southwest 451 519 26,000 -2,460 Descending Kansas City Center
12:54PM 39.9592 -93.1756 238° Southwest 435 501 23,500 -2,460 Descending Kansas City Center
12:55PM 39.8997 -93.3053 239° Southwest 424 488 21,000 -2,700 Descending Kansas City Center
12:56PM 39.8308 -93.4556 239° Southwest 409 471 18,000 -2,640 Descending Kansas City Center
12:57PM 39.7731 -93.5742 238° Southwest 399 459 15,600 -2,400 Descending Kansas City Center
12:59PM 39.7172 -93.6919 238° Southwest 388 447 13,100 -1,800 Descending Kansas City Center
01:00PM 39.6633 -93.8083 239° Southwest 367 422 12,000 -540 Descending Kansas City Center
01:01PM 39.6028 -93.9314 237° Southwest 364 419 12,000  Level Kansas City Center
01:02PM 39.5658 -94.0453 247° West 361 415 12,000 -420 Level Kansas City Center
01:03PM 39.5458 -94.1631 258° West 349 402 11,200 -1,140 Descending Kansas City Center
01:04PM 39.5233 -94.2892 257° West 324 373 9,700 -1,620 Descending Kansas City Center
01:05PM 39.5028 -94.3878 255° West 300 345 7,900 -2,040 Descending Kansas City Center
01:06PM 39.4619 -94.4922 243° Southwest 289 333 5,500 -2,340 Descending Kansas City Center